sensor_id;sensor_type;location;lat;lon;timestamp;P1;durP1;ratioP1;P2;durP2;ratioP2
43994;SDS011;51687;52.160;5.298;2023-03-13T00:02:20;24.48;;;6.32;;
43994;SDS011;51687;52.160;5.298;2023-03-13T00:04:47;25.98;;;6.40;;
43994;SDS011;51687;52.160;5.298;2023-03-13T00:07:15;26.98;;;6.40;;
43994;SDS011;51687;52.160;5.298;2023-03-13T00:09:42;32.58;;;6.40;;
43994;SDS011;51687;52.160;5.298;2023-03-13T00:12:09;25.27;;;6.10;;
43994;SDS011;51687;52.160;5.298;2023-03-13T00:14:36;18.98;;;5.40;;
43994;SDS011;51687;52.160;5.298;2023-03-13T00:17:03;23.80;;;5.95;;
43994;SDS011;51687;52.160;5.298;2023-03-13T00:19:30;23.90;;;6.63;;
43994;SDS011;51687;52.160;5.298;2023-03-13T00:21:57;34.70;;;7.00;;
43994;SDS011;51687;52.160;5.298;2023-03-13T00:24:25;25.20;;;6.60;;
43994;SDS011;51687;52.160;5.298;2023-03-13T00:26:52;18.67;;;5.65;;
43994;SDS011;51687;52.160;5.298;2023-03-13T00:31:47;25.77;;;5.68;;
43994;SDS011;51687;52.160;5.298;2023-03-13T00:34:15;24.48;;;5.60;;
43994;SDS011;51687;52.160;5.298;2023-03-13T00:36:42;26.80;;;5.65;;
43994;SDS011;51687;52.160;5.298;2023-03-13T00:39:09;20.08;;;5.75;;
43994;SDS011;51687;52.160;5.298;2023-03-13T00:41:38;24.25;;;6.13;;
43994;SDS011;51687;52.160;5.298;2023-03-13T00:44:05;21.17;;;5.82;;
43994;SDS011;51687;52.160;5.298;2023-03-13T00:46:33;18.35;;;5.93;;
43994;SDS011;51687;52.160;5.298;2023-03-13T00:49:02;20.48;;;4.97;;
43994;SDS011;51687;52.160;5.298;2023-03-13T00:51:29;25.65;;;5.18;;
43994;SDS011;51687;52.160;5.298;2023-03-13T00:53:57;20.75;;;4.95;;
43994;SDS011;51687;52.160;5.298;2023-03-13T00:56:27;18.35;;;5.40;;
43994;SDS011;51687;52.160;5.298;2023-03-13T00:58:55;22.13;;;5.53;;
43994;SDS011;51687;52.160;5.298;2023-03-13T01:01:23;15.82;;;4.85;;
43994;SDS011;51687;52.160;5.298;2023-03-13T01:03:51;21.02;;;5.78;;
43994;SDS011;51687;52.160;5.298;2023-03-13T01:06:19;21.02;;;5.63;;
43994;SDS011;51687;52.160;5.298;2023-03-13T01:08:47;22.25;;;5.95;;
43994;SDS011;51687;52.160;5.298;2023-03-13T01:11:16;16.95;;;5.93;;
43994;SDS011;51687;52.160;5.298;2023-03-13T01:13:44;18.23;;;5.63;;
43994;SDS011;51687;52.160;5.298;2023-03-13T01:16:13;23.20;;;6.32;;
43994;SDS011;51687;52.160;5.298;2023-03-13T01:18:42;15.90;;;6.22;;
43994;SDS011;51687;52.160;5.298;2023-03-13T01:21:10;16.25;;;6.03;;
43994;SDS011;51687;52.160;5.298;2023-03-13T01:23:37;15.13;;;5.33;;
43994;SDS011;51687;52.160;5.298;2023-03-13T01:26:05;11.93;;;4.72;;
43994;SDS011;51687;52.160;5.298;2023-03-13T01:28:33;16.20;;;5.57;;
43994;SDS011;51687;52.160;5.298;2023-03-13T01:31:00;14.38;;;4.63;;
43994;SDS011;51687;52.160;5.298;2023-03-13T01:33:35;22.98;;;6.10;;
43994;SDS011;51687;52.160;5.298;2023-03-13T01:36:04;12.27;;;5.25;;
43994;SDS011;51687;52.160;5.298;2023-03-13T01:38:31;17.10;;;5.07;;
43994;SDS011;51687;52.160;5.298;2023-03-13T01:40:58;10.07;;;4.78;;
43994;SDS011;51687;52.160;5.298;2023-03-13T01:43:27;14.32;;;4.60;;
43994;SDS011;51687;52.160;5.298;2023-03-13T01:45:59;15.55;;;4.88;;
43994;SDS011;51687;52.160;5.298;2023-03-13T01:48:32;11.57;;;5.20;;
43994;SDS011;51687;52.160;5.298;2023-03-13T01:51:01;14.68;;;5.28;;
43994;SDS011;51687;52.160;5.298;2023-03-13T01:55:57;10.10;;;4.38;;
43994;SDS011;51687;52.160;5.298;2023-03-13T01:58:26;13.05;;;4.32;;
43994;SDS011;51687;52.160;5.298;2023-03-13T02:00:54;8.55;;;4.80;;
43994;SDS011;51687;52.160;5.298;2023-03-13T02:03:21;13.93;;;5.13;;
43994;SDS011;51687;52.160;5.298;2023-03-13T02:05:49;9.48;;;5.18;;
43994;SDS011;51687;52.160;5.298;2023-03-13T02:08:18;16.13;;;6.20;;
43994;SDS011;51687;52.160;5.298;2023-03-13T02:10:57;11.95;;;5.53;;
43994;SDS011;51687;52.160;5.298;2023-03-13T02:13:29;14.20;;;5.72;;
43994;SDS011;51687;52.160;5.298;2023-03-13T02:15:57;9.18;;;5.78;;
43994;SDS011;51687;52.160;5.298;2023-03-13T02:18:24;12.75;;;6.75;;
43994;SDS011;51687;52.160;5.298;2023-03-13T02:20:53;8.65;;;6.10;;
43994;SDS011;51687;52.160;5.298;2023-03-13T02:23:30;11.77;;;6.93;;
43994;SDS011;51687;52.160;5.298;2023-03-13T02:25:59;10.98;;;6.80;;
43994;SDS011;51687;52.160;5.298;2023-03-13T02:28:28;12.35;;;6.85;;
43994;SDS011;51687;52.160;5.298;2023-03-13T02:30:59;7.82;;;6.93;;
43994;SDS011;51687;52.160;5.298;2023-03-13T02:33:27;8.52;;;7.55;;
43994;SDS011;51687;52.160;5.298;2023-03-13T02:35:57;12.75;;;7.95;;
43994;SDS011;51687;52.160;5.298;2023-03-13T02:38:28;13.73;;;9.07;;
43994;SDS011;51687;52.160;5.298;2023-03-13T02:40:58;9.60;;;8.60;;
43994;SDS011;51687;52.160;5.298;2023-03-13T02:48:43;11.80;;;9.68;;
43994;SDS011;51687;52.160;5.298;2023-03-13T02:53:51;12.68;;;11.55;;
43994;SDS011;51687;52.160;5.298;2023-03-13T02:56:21;12.35;;;11.25;;
43994;SDS011;51687;52.160;5.298;2023-03-13T02:58:50;12.73;;;11.38;;
43994;SDS011;51687;52.160;5.298;2023-03-13T03:01:17;13.20;;;11.70;;
43994;SDS011;51687;52.160;5.298;2023-03-13T03:03:44;15.48;;;13.25;;
43994;SDS011;51687;52.160;5.298;2023-03-13T03:06:11;16.65;;;10.73;;
43994;SDS011;51687;52.160;5.298;2023-03-13T03:08:37;15.05;;;12.43;;
43994;SDS011;51687;52.160;5.298;2023-03-13T03:13:34;13.57;;;12.05;;
43994;SDS011;51687;52.160;5.298;2023-03-13T03:16:05;12.70;;;11.45;;
43994;SDS011;51687;52.160;5.298;2023-03-13T03:18:36;14.02;;;12.55;;
43994;SDS011;51687;52.160;5.298;2023-03-13T03:21:04;19.80;;;12.75;;
43994;SDS011;51687;52.160;5.298;2023-03-13T03:23:32;13.45;;;12.10;;
43994;SDS011;51687;52.160;5.298;2023-03-13T03:25:59;16.08;;;11.45;;
43994;SDS011;51687;52.160;5.298;2023-03-13T03:28:27;18.20;;;12.85;;
43994;SDS011;51687;52.160;5.298;2023-03-13T03:30:55;14.77;;;11.45;;
43994;SDS011;51687;52.160;5.298;2023-03-13T03:33:23;15.77;;;11.93;;
43994;SDS011;51687;52.160;5.298;2023-03-13T03:35:50;12.43;;;11.17;;
43994;SDS011;51687;52.160;5.298;2023-03-13T03:38:17;18.38;;;10.73;;
43994;SDS011;51687;52.160;5.298;2023-03-13T03:40:43;13.00;;;10.68;;
43994;SDS011;51687;52.160;5.298;2023-03-13T03:43:10;16.17;;;11.75;;
43994;SDS011;51687;52.160;5.298;2023-03-13T03:45:37;13.90;;;10.63;;
43994;SDS011;51687;52.160;5.298;2023-03-13T03:48:03;15.80;;;11.82;;
43994;SDS011;51687;52.160;5.298;2023-03-13T03:50:30;12.30;;;9.85;;
43994;SDS011;51687;52.160;5.298;2023-03-13T03:52:57;14.15;;;10.45;;
43994;SDS011;51687;52.160;5.298;2023-03-13T03:55:24;14.45;;;10.18;;
43994;SDS011;51687;52.160;5.298;2023-03-13T03:57:50;13.85;;;9.30;;
43994;SDS011;51687;52.160;5.298;2023-03-13T04:00:17;16.08;;;9.95;;
43994;SDS011;51687;52.160;5.298;2023-03-13T04:02:44;10.30;;;7.32;;
43994;SDS011;51687;52.160;5.298;2023-03-13T04:05:11;11.60;;;8.00;;
43994;SDS011;51687;52.160;5.298;2023-03-13T04:07:38;10.32;;;6.50;;
43994;SDS011;51687;52.160;5.298;2023-03-13T04:10:06;8.55;;;7.15;;
43994;SDS011;51687;52.160;5.298;2023-03-13T04:12:33;10.05;;;7.63;;
43994;SDS011;51687;52.160;5.298;2023-03-13T04:15:00;7.82;;;6.82;;
43994;SDS011;51687;52.160;5.298;2023-03-13T04:17:28;9.68;;;7.40;;
43994;SDS011;51687;52.160;5.298;2023-03-13T04:19:55;9.35;;;7.75;;
43994;SDS011;51687;52.160;5.298;2023-03-13T04:22:22;10.70;;;8.35;;
43994;SDS011;51687;52.160;5.298;2023-03-13T04:24:48;16.02;;;8.48;;
43994;SDS011;51687;52.160;5.298;2023-03-13T04:27:15;9.27;;;8.38;;
43994;SDS011;51687;52.160;5.298;2023-03-13T04:29:42;13.20;;;8.27;;
43994;SDS011;51687;52.160;5.298;2023-03-13T04:32:09;14.02;;;7.90;;
43994;SDS011;51687;52.160;5.298;2023-03-13T04:34:36;11.13;;;7.63;;
43994;SDS011;51687;52.160;5.298;2023-03-13T04:37:03;8.65;;;7.25;;
43994;SDS011;51687;52.160;5.298;2023-03-13T04:39:30;8.50;;;7.25;;
43994;SDS011;51687;52.160;5.298;2023-03-13T04:41:58;8.65;;;7.85;;
43994;SDS011;51687;52.160;5.298;2023-03-13T04:44:25;9.80;;;8.80;;
43994;SDS011;51687;52.160;5.298;2023-03-13T04:46:52;10.48;;;8.10;;
43994;SDS011;51687;52.160;5.298;2023-03-13T04:49:21;10.13;;;8.07;;
43994;SDS011;51687;52.160;5.298;2023-03-13T04:51:50;7.35;;;6.65;;
43994;SDS011;51687;52.160;5.298;2023-03-13T04:54:17;8.98;;;8.07;;
43994;SDS011;51687;52.160;5.298;2023-03-13T04:56:44;10.20;;;8.25;;
43994;SDS011;51687;52.160;5.298;2023-03-13T04:59:12;7.80;;;7.20;;
43994;SDS011;51687;52.160;5.298;2023-03-13T05:01:41;8.00;;;7.15;;
43994;SDS011;51687;52.160;5.298;2023-03-13T05:04:09;7.90;;;7.05;;
43994;SDS011;51687;52.160;5.298;2023-03-13T05:06:36;11.02;;;6.78;;
43994;SDS011;51687;52.160;5.298;2023-03-13T05:09:03;11.00;;;6.75;;
43994;SDS011;51687;52.160;5.298;2023-03-13T05:11:31;8.70;;;5.93;;
43994;SDS011;51687;52.160;5.298;2023-03-13T05:13:58;6.85;;;5.75;;
43994;SDS011;51687;52.160;5.298;2023-03-13T05:16:25;6.55;;;4.68;;
43994;SDS011;51687;52.160;5.298;2023-03-13T05:18:51;6.88;;;5.25;;
43994;SDS011;51687;52.160;5.298;2023-03-13T05:21:18;9.48;;;5.25;;
43994;SDS011;51687;52.160;5.298;2023-03-13T05:23:45;7.28;;;4.15;;
43994;SDS011;51687;52.160;5.298;2023-03-13T05:26:12;7.70;;;4.78;;
43994;SDS011;51687;52.160;5.298;2023-03-13T05:28:38;8.80;;;5.38;;
43994;SDS011;51687;52.160;5.298;2023-03-13T05:31:05;8.20;;;4.60;;
43994;SDS011;51687;52.160;5.298;2023-03-13T05:33:32;9.98;;;4.65;;
43994;SDS011;51687;52.160;5.298;2023-03-13T05:35:58;9.63;;;4.90;;
43994;SDS011;51687;52.160;5.298;2023-03-13T05:38:25;7.38;;;4.30;;
43994;SDS011;51687;52.160;5.298;2023-03-13T05:40:52;8.93;;;4.30;;
43994;SDS011;51687;52.160;5.298;2023-03-13T05:43:19;9.43;;;4.18;;
43994;SDS011;51687;52.160;5.298;2023-03-13T05:45:45;10.55;;;3.60;;
43994;SDS011;51687;52.160;5.298;2023-03-13T05:48:12;8.23;;;3.67;;
43994;SDS011;51687;52.160;5.298;2023-03-13T05:50:39;10.10;;;4.50;;
43994;SDS011;51687;52.160;5.298;2023-03-13T05:53:06;9.50;;;3.45;;
43994;SDS011;51687;52.160;5.298;2023-03-13T05:55:32;8.50;;;3.58;;
43994;SDS011;51687;52.160;5.298;2023-03-13T05:57:59;6.88;;;3.38;;
43994;SDS011;51687;52.160;5.298;2023-03-13T06:00:26;10.35;;;3.65;;
43994;SDS011;51687;52.160;5.298;2023-03-13T06:02:53;11.98;;;3.28;;
43994;SDS011;51687;52.160;5.298;2023-03-13T06:05:19;8.10;;;3.35;;
43994;SDS011;51687;52.160;5.298;2023-03-13T06:07:47;10.25;;;4.93;;
43994;SDS011;51687;52.160;5.298;2023-03-13T06:10:15;7.38;;;3.28;;
43994;SDS011;51687;52.160;5.298;2023-03-13T06:12:42;7.75;;;3.10;;
43994;SDS011;51687;52.160;5.298;2023-03-13T06:15:09;11.20;;;3.65;;
43994;SDS011;51687;52.160;5.298;2023-03-13T06:17:37;6.78;;;3.55;;
43994;SDS011;51687;52.160;5.298;2023-03-13T06:20:04;7.00;;;3.20;;
43994;SDS011;51687;52.160;5.298;2023-03-13T06:22:31;9.25;;;3.20;;
43994;SDS011;51687;52.160;5.298;2023-03-13T06:24:58;6.78;;;3.28;;
43994;SDS011;51687;52.160;5.298;2023-03-13T06:27:25;8.73;;;3.95;;
43994;SDS011;51687;52.160;5.298;2023-03-13T06:29:52;9.15;;;3.63;;
43994;SDS011;51687;52.160;5.298;2023-03-13T06:32:18;6.93;;;3.05;;
43994;SDS011;51687;52.160;5.298;2023-03-13T06:34:45;5.75;;;3.22;;
43994;SDS011;51687;52.160;5.298;2023-03-13T06:37:12;5.72;;;3.17;;
43994;SDS011;51687;52.160;5.298;2023-03-13T06:39:39;9.40;;;3.17;;
43994;SDS011;51687;52.160;5.298;2023-03-13T06:42:06;8.00;;;2.75;;
43994;SDS011;51687;52.160;5.298;2023-03-13T06:44:32;7.13;;;3.42;;
43994;SDS011;51687;52.160;5.298;2023-03-13T06:46:59;7.18;;;3.03;;
43994;SDS011;51687;52.160;5.298;2023-03-13T06:49:26;5.75;;;2.60;;
43994;SDS011;51687;52.160;5.298;2023-03-13T06:51:55;6.63;;;3.63;;
43994;SDS011;51687;52.160;5.298;2023-03-13T06:54:23;7.38;;;2.70;;
43994;SDS011;51687;52.160;5.298;2023-03-13T06:56:51;11.23;;;4.07;;
43994;SDS011;51687;52.160;5.298;2023-03-13T06:59:17;8.32;;;2.92;;
43994;SDS011;51687;52.160;5.298;2023-03-13T07:01:46;8.80;;;3.20;;
43994;SDS011;51687;52.160;5.298;2023-03-13T07:04:14;8.00;;;3.40;;
43994;SDS011;51687;52.160;5.298;2023-03-13T07:06:41;7.45;;;3.00;;
43994;SDS011;51687;52.160;5.298;2023-03-13T07:09:08;8.02;;;3.00;;
43994;SDS011;51687;52.160;5.298;2023-03-13T07:11:36;8.18;;;3.38;;
43994;SDS011;51687;52.160;5.298;2023-03-13T07:14:03;7.43;;;3.60;;
43994;SDS011;51687;52.160;5.298;2023-03-13T07:16:42;6.05;;;2.55;;
43994;SDS011;51687;52.160;5.298;2023-03-13T07:19:09;8.18;;;3.50;;
43994;SDS011;51687;52.160;5.298;2023-03-13T07:21:36;5.03;;;3.13;;
43994;SDS011;51687;52.160;5.298;2023-03-13T07:24:03;8.50;;;3.20;;
43994;SDS011;51687;52.160;5.298;2023-03-13T07:26:30;11.63;;;3.53;;
43994;SDS011;51687;52.160;5.298;2023-03-13T07:28:57;8.77;;;4.30;;
43994;SDS011;51687;52.160;5.298;2023-03-13T07:31:24;6.22;;;3.13;;
43994;SDS011;51687;52.160;5.298;2023-03-13T07:33:52;9.13;;;3.45;;
43994;SDS011;51687;52.160;5.298;2023-03-13T07:36:21;7.00;;;3.40;;
43994;SDS011;51687;52.160;5.298;2023-03-13T07:38:50;6.03;;;3.15;;
43994;SDS011;51687;52.160;5.298;2023-03-13T07:41:18;6.93;;;4.00;;
43994;SDS011;51687;52.160;5.298;2023-03-13T07:43:45;12.63;;;4.22;;
43994;SDS011;51687;52.160;5.298;2023-03-13T07:46:14;6.72;;;3.42;;
43994;SDS011;51687;52.160;5.298;2023-03-13T07:48:45;13.88;;;4.80;;
43994;SDS011;51687;52.160;5.298;2023-03-13T07:51:19;7.80;;;3.85;;
43994;SDS011;51687;52.160;5.298;2023-03-13T07:54:02;6.72;;;3.78;;
43994;SDS011;51687;52.160;5.298;2023-03-13T07:56:29;7.28;;;3.92;;
43994;SDS011;51687;52.160;5.298;2023-03-13T07:58:55;7.65;;;3.28;;
43994;SDS011;51687;52.160;5.298;2023-03-13T08:01:23;7.80;;;3.40;;
43994;SDS011;51687;52.160;5.298;2023-03-13T08:03:55;9.57;;;3.83;;
43994;SDS011;51687;52.160;5.298;2023-03-13T08:06:24;6.80;;;3.78;;
43994;SDS011;51687;52.160;5.298;2023-03-13T08:08:51;7.43;;;3.03;;
43994;SDS011;51687;52.160;5.298;2023-03-13T08:11:24;6.10;;;2.67;;
43994;SDS011;51687;52.160;5.298;2023-03-13T08:13:52;6.82;;;3.05;;
43994;SDS011;51687;52.160;5.298;2023-03-13T08:16:21;7.95;;;2.97;;
43994;SDS011;51687;52.160;5.298;2023-03-13T08:18:53;7.80;;;2.95;;
43994;SDS011;51687;52.160;5.298;2023-03-13T08:21:23;8.23;;;2.90;;
43994;SDS011;51687;52.160;5.298;2023-03-13T08:23:52;6.40;;;3.20;;
43994;SDS011;51687;52.160;5.298;2023-03-13T08:26:20;5.60;;;2.47;;
43994;SDS011;51687;52.160;5.298;2023-03-13T08:28:53;9.13;;;3.40;;
43994;SDS011;51687;52.160;5.298;2023-03-13T08:31:25;4.95;;;2.75;;
43994;SDS011;51687;52.160;5.298;2023-03-13T08:34:00;4.90;;;2.83;;
43994;SDS011;51687;52.160;5.298;2023-03-13T08:36:29;6.78;;;3.33;;
43994;SDS011;51687;52.160;5.298;2023-03-13T08:39:06;5.28;;;2.55;;
43994;SDS011;51687;52.160;5.298;2023-03-13T08:41:36;6.97;;;2.60;;
43994;SDS011;51687;52.160;5.298;2023-03-13T08:44:06;5.05;;;2.60;;
43994;SDS011;51687;52.160;5.298;2023-03-13T08:46:34;6.18;;;2.80;;
43994;SDS011;51687;52.160;5.298;2023-03-13T08:49:02;6.22;;;2.90;;
43994;SDS011;51687;52.160;5.298;2023-03-13T08:51:29;4.85;;;2.92;;
43994;SDS011;51687;52.160;5.298;2023-03-13T08:53:57;6.95;;;2.60;;
43994;SDS011;51687;52.160;5.298;2023-03-13T08:56:25;6.47;;;2.70;;
43994;SDS011;51687;52.160;5.298;2023-03-13T08:58:57;6.28;;;2.58;;
43994;SDS011;51687;52.160;5.298;2023-03-13T09:01:26;6.68;;;2.63;;
43994;SDS011;51687;52.160;5.298;2023-03-13T09:03:55;10.27;;;2.92;;
43994;SDS011;51687;52.160;5.298;2023-03-13T09:06:24;8.95;;;3.13;;
43994;SDS011;51687;52.160;5.298;2023-03-13T09:08:51;5.90;;;2.65;;
43994;SDS011;51687;52.160;5.298;2023-03-13T09:11:18;5.55;;;2.67;;
43994;SDS011;51687;52.160;5.298;2023-03-13T09:13:47;7.70;;;2.40;;
43994;SDS011;51687;52.160;5.298;2023-03-13T09:18:51;5.93;;;2.65;;
43994;SDS011;51687;52.160;5.298;2023-03-13T09:21:22;5.87;;;2.80;;
43994;SDS011;51687;52.160;5.298;2023-03-13T09:23:50;10.32;;;3.03;;
43994;SDS011;51687;52.160;5.298;2023-03-13T09:26:17;5.28;;;2.10;;
43994;SDS011;51687;52.160;5.298;2023-03-13T09:28:48;4.65;;;2.13;;
43994;SDS011;51687;52.160;5.298;2023-03-13T09:31:16;10.80;;;2.35;;
43994;SDS011;51687;52.160;5.298;2023-03-13T09:34:04;5.38;;;2.13;;
43994;SDS011;51687;52.160;5.298;2023-03-13T09:36:31;6.65;;;2.13;;
43994;SDS011;51687;52.160;5.298;2023-03-13T09:38:58;5.70;;;2.00;;
43994;SDS011;51687;52.160;5.298;2023-03-13T09:41:26;5.88;;;2.10;;
43994;SDS011;51687;52.160;5.298;2023-03-13T09:44:19;6.43;;;2.00;;
43994;SDS011;51687;52.160;5.298;2023-03-13T09:49:27;7.53;;;2.10;;
43994;SDS011;51687;52.160;5.298;2023-03-13T09:52:15;5.53;;;1.90;;
43994;SDS011;51687;52.160;5.298;2023-03-13T09:55:02;7.40;;;2.03;;
43994;SDS011;51687;52.160;5.298;2023-03-13T09:57:33;4.55;;;2.25;;
43994;SDS011;51687;52.160;5.298;2023-03-13T10:00:13;6.30;;;1.60;;
43994;SDS011;51687;52.160;5.298;2023-03-13T10:02:43;6.32;;;1.73;;
43994;SDS011;51687;52.160;5.298;2023-03-13T10:05:16;6.63;;;1.88;;
43994;SDS011;51687;52.160;5.298;2023-03-13T10:10:52;3.70;;;1.30;;
43994;SDS011;51687;52.160;5.298;2023-03-13T10:15:55;6.53;;;1.65;;
43994;SDS011;51687;52.160;5.298;2023-03-13T10:18:27;3.67;;;1.17;;
43994;SDS011;51687;52.160;5.298;2023-03-13T10:20:59;5.13;;;1.13;;
43994;SDS011;51687;52.160;5.298;2023-03-13T10:25:54;3.33;;;1.20;;
43994;SDS011;51687;52.160;5.298;2023-03-13T10:28:21;5.00;;;1.25;;
43994;SDS011;51687;52.160;5.298;2023-03-13T10:30:49;4.20;;;1.45;;
43994;SDS011;51687;52.160;5.298;2023-03-13T10:33:25;2.65;;;1.20;;
43994;SDS011;51687;52.160;5.298;2023-03-13T10:36:27;3.00;;;1.10;;
43994;SDS011;51687;52.160;5.298;2023-03-13T10:41:18;3.30;;;1.30;;
43994;SDS011;51687;52.160;5.298;2023-03-13T10:44:00;7.10;;;1.67;;
43994;SDS011;51687;52.160;5.298;2023-03-13T10:46:31;2.58;;;1.10;;
43994;SDS011;51687;52.160;5.298;2023-03-13T10:49:01;4.63;;;1.33;;
43994;SDS011;51687;52.160;5.298;2023-03-13T10:51:34;5.88;;;1.55;;
43994;SDS011;51687;52.160;5.298;2023-03-13T10:54:15;4.75;;;1.77;;
43994;SDS011;51687;52.160;5.298;2023-03-13T10:56:47;2.97;;;1.42;;
43994;SDS011;51687;52.160;5.298;2023-03-13T10:59:22;5.35;;;1.80;;
43994;SDS011;51687;52.160;5.298;2023-03-13T11:01:50;4.32;;;1.35;;
43994;SDS011;51687;52.160;5.298;2023-03-13T11:04:34;4.78;;;1.48;;
43994;SDS011;51687;52.160;5.298;2023-03-13T11:07:04;4.55;;;1.50;;
43994;SDS011;51687;52.160;5.298;2023-03-13T11:09:39;10.75;;;1.85;;
43994;SDS011;51687;52.160;5.298;2023-03-13T11:12:09;5.53;;;2.00;;
43994;SDS011;51687;52.160;5.298;2023-03-13T11:14:43;5.30;;;1.85;;
43994;SDS011;51687;52.160;5.298;2023-03-13T11:33:01;6.32;;;1.60;;
43994;SDS011;51687;52.160;5.298;2023-03-13T11:37:56;13.82;;;1.77;;
43994;SDS011;51687;52.160;5.298;2023-03-13T11:42:59;4.85;;;1.92;;
43994;SDS011;51687;52.160;5.298;2023-03-13T11:52:28;9.32;;;1.45;;
43994;SDS011;51687;52.160;5.298;2023-03-13T12:00:37;5.10;;;1.30;;
43994;SDS011;51687;52.160;5.298;2023-03-13T12:03:12;4.15;;;1.20;;
43994;SDS011;51687;52.160;5.298;2023-03-13T12:05:49;3.75;;;1.25;;
43994;SDS011;51687;52.160;5.298;2023-03-13T12:11:25;5.55;;;1.65;;
43994;SDS011;51687;52.160;5.298;2023-03-13T12:13:58;4.15;;;1.20;;
43994;SDS011;51687;52.160;5.298;2023-03-13T12:16:40;4.07;;;1.63;;
43994;SDS011;51687;52.160;5.298;2023-03-13T12:19:12;4.80;;;1.52;;
43994;SDS011;51687;52.160;5.298;2023-03-13T12:21:49;7.38;;;1.80;;
43994;SDS011;51687;52.160;5.298;2023-03-13T12:24:39;5.95;;;1.88;;
43994;SDS011;51687;52.160;5.298;2023-03-13T12:27:34;4.97;;;1.60;;
43994;SDS011;51687;52.160;5.298;2023-03-13T12:30:32;7.85;;;1.98;;
43994;SDS011;51687;52.160;5.298;2023-03-13T12:35:54;6.55;;;2.00;;
43994;SDS011;51687;52.160;5.298;2023-03-13T12:38:38;5.90;;;1.77;;
43994;SDS011;51687;52.160;5.298;2023-03-13T12:41:23;14.40;;;2.78;;
43994;SDS011;51687;52.160;5.298;2023-03-13T12:43:56;10.48;;;3.13;;
43994;SDS011;51687;52.160;5.298;2023-03-13T12:46:48;6.97;;;1.92;;
43994;SDS011;51687;52.160;5.298;2023-03-13T12:49:29;6.47;;;1.70;;
43994;SDS011;51687;52.160;5.298;2023-03-13T12:53:08;16.95;;;2.55;;
43994;SDS011;51687;52.160;5.298;2023-03-13T13:00:24;8.25;;;2.25;;
43994;SDS011;51687;52.160;5.298;2023-03-13T13:03:28;6.80;;;2.38;;
43994;SDS011;51687;52.160;5.298;2023-03-13T13:05:59;8.20;;;2.95;;
43994;SDS011;51687;52.160;5.298;2023-03-13T13:08:30;8.07;;;2.72;;
43994;SDS011;51687;52.160;5.298;2023-03-13T13:11:43;7.38;;;2.45;;
43994;SDS011;51687;52.160;5.298;2023-03-13T13:13:49;13.60;;;2.50;;
43994;SDS011;51687;52.160;5.298;2023-03-13T13:16:18;11.90;;;2.53;;
43994;SDS011;51687;52.160;5.298;2023-03-13T13:18:49;11.50;;;2.55;;
43994;SDS011;51687;52.160;5.298;2023-03-13T13:21:18;14.40;;;3.20;;
43994;SDS011;51687;52.160;5.298;2023-03-13T13:23:46;11.73;;;2.90;;
43994;SDS011;51687;52.160;5.298;2023-03-13T13:26:36;7.10;;;2.22;;
43994;SDS011;51687;52.160;5.298;2023-03-13T13:37:04;16.13;;;3.75;;
43994;SDS011;51687;52.160;5.298;2023-03-13T13:39:49;10.48;;;3.65;;
43994;SDS011;51687;52.160;5.298;2023-03-13T13:44:58;11.57;;;3.55;;
43994;SDS011;51687;52.160;5.298;2023-03-13T13:49:53;7.57;;;2.88;;
43994;SDS011;51687;52.160;5.298;2023-03-13T13:52:32;11.20;;;3.67;;
43994;SDS011;51687;52.160;5.298;2023-03-13T13:55:49;11.60;;;3.88;;
43994;SDS011;51687;52.160;5.298;2023-03-13T13:58:02;10.23;;;2.85;;
43994;SDS011;51687;52.160;5.298;2023-03-13T14:00:33;16.23;;;4.28;;
43994;SDS011;51687;52.160;5.298;2023-03-13T14:03:31;15.68;;;3.92;;
43994;SDS011;51687;52.160;5.298;2023-03-13T14:06:03;18.42;;;4.72;;
43994;SDS011;51687;52.160;5.298;2023-03-13T14:08:40;13.45;;;3.88;;
43994;SDS011;51687;52.160;5.298;2023-03-13T14:13:40;11.82;;;4.32;;
43994;SDS011;51687;52.160;5.298;2023-03-13T14:16:19;12.02;;;4.18;;
43994;SDS011;51687;52.160;5.298;2023-03-13T14:18:50;15.27;;;4.00;;
43994;SDS011;51687;52.160;5.298;2023-03-13T14:21:24;19.13;;;4.43;;
43994;SDS011;51687;52.160;5.298;2023-03-13T14:23:52;13.50;;;4.97;;
43994;SDS011;51687;52.160;5.298;2023-03-13T14:26:20;19.02;;;4.15;;
43994;SDS011;51687;52.160;5.298;2023-03-13T14:28:56;14.45;;;4.22;;
43994;SDS011;51687;52.160;5.298;2023-03-13T14:33:55;17.02;;;5.20;;
43994;SDS011;51687;52.160;5.298;2023-03-13T14:36:24;16.73;;;4.78;;
43994;SDS011;51687;52.160;5.298;2023-03-13T14:44:03;12.95;;;4.03;;
43994;SDS011;51687;52.160;5.298;2023-03-13T14:46:32;15.88;;;4.30;;
43994;SDS011;51687;52.160;5.298;2023-03-13T14:49:05;17.17;;;4.32;;
43994;SDS011;51687;52.160;5.298;2023-03-13T14:51:44;17.73;;;3.90;;
43994;SDS011;51687;52.160;5.298;2023-03-13T14:54:22;17.10;;;5.07;;
43994;SDS011;51687;52.160;5.298;2023-03-13T14:59:38;15.13;;;4.93;;
43994;SDS011;51687;52.160;5.298;2023-03-13T15:04:48;11.88;;;3.47;;
43994;SDS011;51687;52.160;5.298;2023-03-13T15:07:16;12.27;;;4.05;;
43994;SDS011;51687;52.160;5.298;2023-03-13T15:09:44;14.90;;;3.97;;
43994;SDS011;51687;52.160;5.298;2023-03-13T15:12:12;14.63;;;4.18;;
43994;SDS011;51687;52.160;5.298;2023-03-13T15:14:42;11.25;;;4.07;;
43994;SDS011;51687;52.160;5.298;2023-03-13T15:19:39;14.63;;;4.50;;
43994;SDS011;51687;52.160;5.298;2023-03-13T15:22:13;15.75;;;5.07;;
43994;SDS011;51687;52.160;5.298;2023-03-13T15:24:41;16.65;;;4.20;;
43994;SDS011;51687;52.160;5.298;2023-03-13T15:27:18;16.80;;;4.95;;
43994;SDS011;51687;52.160;5.298;2023-03-13T15:29:47;13.73;;;4.10;;
43994;SDS011;51687;52.160;5.298;2023-03-13T15:32:35;18.05;;;4.68;;
43994;SDS011;51687;52.160;5.298;2023-03-13T15:35:04;15.13;;;4.57;;
43994;SDS011;51687;52.160;5.298;2023-03-13T15:37:54;17.70;;;4.50;;
43994;SDS011;51687;52.160;5.298;2023-03-13T15:40:22;12.02;;;4.15;;
43994;SDS011;51687;52.160;5.298;2023-03-13T15:42:50;10.25;;;3.25;;
43994;SDS011;51687;52.160;5.298;2023-03-13T15:45:18;14.80;;;4.60;;
43994;SDS011;51687;52.160;5.298;2023-03-13T15:47:45;13.57;;;4.82;;
43994;SDS011;51687;52.160;5.298;2023-03-13T15:50:15;12.82;;;3.70;;
43994;SDS011;51687;52.160;5.298;2023-03-13T15:52:43;15.05;;;3.85;;
43994;SDS011;51687;52.160;5.298;2023-03-13T15:55:10;20.20;;;5.13;;
43994;SDS011;51687;52.160;5.298;2023-03-13T15:57:40;15.10;;;4.90;;
43994;SDS011;51687;52.160;5.298;2023-03-13T16:00:14;9.82;;;3.70;;
43994;SDS011;51687;52.160;5.298;2023-03-13T16:02:43;17.27;;;4.15;;
43994;SDS011;51687;52.160;5.298;2023-03-13T16:05:10;11.15;;;3.65;;
43994;SDS011;51687;52.160;5.298;2023-03-13T16:07:36;15.52;;;4.35;;
43994;SDS011;51687;52.160;5.298;2023-03-13T16:10:06;12.60;;;4.43;;
43994;SDS011;51687;52.160;5.298;2023-03-13T16:12:50;12.82;;;4.32;;
43994;SDS011;51687;52.160;5.298;2023-03-13T16:15:17;15.90;;;4.00;;
43994;SDS011;51687;52.160;5.298;2023-03-13T16:17:44;16.52;;;4.75;;
43994;SDS011;51687;52.160;5.298;2023-03-13T16:20:12;14.73;;;4.60;;
43994;SDS011;51687;52.160;5.298;2023-03-13T16:22:42;11.55;;;4.13;;
43994;SDS011;51687;52.160;5.298;2023-03-13T16:25:09;14.95;;;4.40;;
43994;SDS011;51687;52.160;5.298;2023-03-13T16:27:36;14.10;;;4.13;;
43994;SDS011;51687;52.160;5.298;2023-03-13T16:30:14;15.85;;;4.43;;
43994;SDS011;51687;52.160;5.298;2023-03-13T16:32:44;19.88;;;4.53;;
43994;SDS011;51687;52.160;5.298;2023-03-13T16:35:11;18.77;;;4.63;;
43994;SDS011;51687;52.160;5.298;2023-03-13T16:37:38;18.25;;;5.03;;
43994;SDS011;51687;52.160;5.298;2023-03-13T16:42:44;19.45;;;5.82;;
43994;SDS011;51687;52.160;5.298;2023-03-13T16:45:12;16.33;;;5.07;;
43994;SDS011;51687;52.160;5.298;2023-03-13T16:48:05;18.58;;;5.38;;
43994;SDS011;51687;52.160;5.298;2023-03-13T16:50:34;23.35;;;5.38;;